Sasebo, Japan
Current Conditions -  °F | °C
As of 9:00 PM on Friday 19 Dec 2014 (Local Time) from RJFU Reporting Station
Rain Showers Rain Showers  
Wind Chill: 40°   Ceiling: 6000
Heat Index: 45°   Visibility: 6mi
Dew Point: 36°   Wind: 8mph
Humidity: 71%   Direction: 160°SSE
Pressure: 30.27"   Gusts: NA
Location:  33.16°N, 129.72°E
Report Text: RJFU 191200Z 16007KT 9999 -SHRA FEW025 SCT035 BKN060 07/02 Q1025
Loading
Personal Weather Stations






























Interactive Weather Map New forecast layout! Learn more

10-Day Weather Forecast

Advertisements
Track Severe Weather on mobile